Time;durP1;ratioP1;P1;durP2;ratioP2;P2;SDS_P1;SDS_P2;PMS_P1;PMS_P2;Temp;Humidity;BMP_temperature;BMP_pressure;BME280_temperature;BME280_humidity;BME280_pressure;Samples;Min_cycle;Max_cycle;Signal;HPM_P1;HPM_P2
2022/11/23 00:01:11;;;;;;;;;;;7.10;99.90;;;;;;4892119;29;20028;-74
2022/11/23 00:03:36;;;;;;;;;;;7.20;99.90;;;;;;4908408;29;19982;-74
2022/11/23 00:06:02;;;;;;;;;;;7.20;99.90;;;;;;4892084;29;19926;-74
2022/11/23 00:08:28;;;;;;;;;;;7.10;99.90;;;;;;4891975;29;19919;-74
2022/11/23 00:10:56;;;;;;;;;;;7.10;99.90;;;;;;4891068;29;19919;-74
2022/11/23 00:13:22;;;;;;;;;;;7.20;99.90;;;;;;4892154;29;19923;-74
2022/11/23 00:15:48;;;;;;;;;;;7.20;99.90;;;;;;4898700;29;19926;-74
2022/11/23 00:18:14;;;;;;;;;;;7.10;99.90;;;;;;4898926;29;19966;-74
2022/11/23 00:20:39;;;;;;;;;;;7.10;99.90;;;;;;4896228;29;19927;-74
2022/11/23 00:23:05;;;;;;;;;;;7.10;99.90;;;;;;4876856;29;19919;-74
2022/11/23 00:25:30;;;;;;;;;;;7.00;99.90;;;;;;4875819;29;19923;-74
2022/11/23 00:27:56;;;;;;;;;;;7.00;99.90;;;;;;4912932;29;20304;-74
2022/11/23 00:30:21;;;;;;;;;;;7.00;99.90;;;;;;4881682;29;20714;-74
2022/11/23 00:32:47;;;;;;;;;;;7.00;99.90;;;;;;4927024;29;19978;-74
2022/11/23 00:35:13;;;;;;;;;;;7.00;99.90;;;;;;4899107;29;19919;-73
2022/11/23 00:37:38;;;;;;;;;;;6.90;99.90;;;;;;4897403;29;19923;-73
2022/11/23 00:40:04;;;;;;;;;;;7.00;99.90;;;;;;4910220;29;19996;-73
2022/11/23 00:42:30;;;;;;;;;;;7.00;99.90;;;;;;4895424;29;19923;-74
2022/11/23 00:44:55;;;;;;;;;;;6.90;99.90;;;;;;4879362;29;19923;-73
2022/11/23 00:47:21;;;;;;;;;;;7.00;99.90;;;;;;4895424;29;19942;-73
2022/11/23 00:49:46;;;;;;;;;;;7.00;99.90;;;;;;4894521;29;19919;-74
2022/11/23 00:52:12;;;;;;;;;;;7.00;99.90;;;;;;4894956;29;20525;-74
2022/11/23 00:54:38;;;;;;;;;;;7.00;99.90;;;;;;4894928;29;19983;-73
2022/11/23 00:57:03;;;;;;;;;;;7.00;99.90;;;;;;4894783;29;20415;-73
2022/11/23 00:59:29;;;;;;;;;;;7.00;99.90;;;;;;4894734;29;20470;-74
2022/11/23 01:01:55;;;;;;;;;;;7.00;99.90;;;;;;4892447;29;19924;-73
2022/11/23 01:04:20;;;;;;;;;;;7.00;99.90;;;;;;4879196;29;19919;-73
2022/11/23 01:06:46;;;;;;;;;;;7.10;99.90;;;;;;4894751;29;20268;-74
2022/11/23 01:09:13;;;;;;;;;;;7.10;99.90;;;;;;4878537;29;19923;-74
2022/11/23 01:11:39;;;;;;;;;;;7.10;99.90;;;;;;4894568;29;19930;-74
2022/11/23 01:14:05;;;;;;;;;;;7.10;99.90;;;;;;4910598;29;19922;-74
2022/11/23 01:16:35;;;;;;;;;;;7.10;99.90;;;;;;4893828;29;19923;-74
2022/11/23 01:19:02;;;;;;;;;;;7.10;99.90;;;;;;4893308;29;19938;-73
2022/11/23 01:21:28;;;;;;;;;;;7.10;99.90;;;;;;4898806;29;19919;-73
2022/11/23 01:23:54;;;;;;;;;;;7.10;99.90;;;;;;4880825;29;20010;-73
2022/11/23 01:26:20;;;;;;;;;;;7.10;99.90;;;;;;4894694;29;20014;-73
2022/11/23 01:28:46;;;;;;;;;;;7.10;99.90;;;;;;4893040;29;19947;-73
2022/11/23 01:31:13;;;;;;;;;;;7.10;99.90;;;;;;4909350;29;19959;-74
2022/11/23 01:33:39;;;;;;;;;;;7.10;99.90;;;;;;4894413;29;20165;-73
2022/11/23 01:36:09;;;;;;;;;;;7.10;99.90;;;;;;4896021;29;20398;-74
2022/11/23 01:38:34;;;;;;;;;;;7.10;99.90;;;;;;4911874;29;19987;-74
2022/11/23 01:41:00;;;;;;;;;;;7.10;99.90;;;;;;4880191;29;20383;-74
2022/11/23 01:43:26;;;;;;;;;;;7.10;99.90;;;;;;4880312;29;19919;-74
2022/11/23 01:45:51;;;;;;;;;;;7.10;99.90;;;;;;4880250;29;20302;-74
2022/11/23 01:48:18;;;;;;;;;;;7.20;99.90;;;;;;4896227;29;20144;-74
2022/11/23 01:50:47;;;;;;;;;;;7.10;99.90;;;;;;4915861;29;20347;-74
2022/11/23 01:53:13;;;;;;;;;;;7.20;99.90;;;;;;4898220;29;20355;-74
2022/11/23 01:55:39;;;;;;;;;;;7.20;99.90;;;;;;4896063;29;20017;-74
2022/11/23 01:58:08;;;;;;;;;;;7.20;99.90;;;;;;4901172;29;19923;-74
2022/11/23 02:00:34;;;;;;;;;;;7.20;99.90;;;;;;4921494;29;20014;-74
2022/11/23 02:03:02;;;;;;;;;;;7.20;99.90;;;;;;4916619;29;20299;-74
2022/11/23 02:05:30;;;;;;;;;;;7.20;99.90;;;;;;4898083;29;19923;-74
2022/11/23 02:07:58;;;;;;;;;;;7.20;99.90;;;;;;4896029;29;19927;-74
2022/11/23 02:10:23;;;;;;;;;;;7.30;99.90;;;;;;4911400;29;20395;-74
2022/11/23 02:12:49;;;;;;;;;;;7.20;99.90;;;;;;4895976;29;19974;-74
2022/11/23 02:15:15;;;;;;;;;;;7.30;99.90;;;;;;4892627;29;19919;-74
2022/11/23 02:17:42;;;;;;;;;;;7.30;99.90;;;;;;4906422;29;19923;-74
2022/11/23 02:20:12;;;;;;;;;;;7.30;99.90;;;;;;4895417;29;20434;-74
2022/11/23 02:22:40;;;;;;;;;;;7.30;99.90;;;;;;4894514;29;20216;-74
2022/11/23 02:25:11;;;;;;;;;;;7.20;99.90;;;;;;4892051;29;20025;-74
2022/11/23 02:27:36;;;;;;;;;;;7.30;99.90;;;;;;4897292;29;19922;-74
2022/11/23 02:30:02;;;;;;;;;;;7.30;99.90;;;;;;4879719;29;20402;-74
2022/11/23 02:32:28;;;;;;;;;;;7.30;99.90;;;;;;4895172;29;19919;-74
2022/11/23 02:34:54;;;;;;;;;;;7.30;99.90;;;;;;4895494;29;19926;-74
2022/11/23 02:37:19;;;;;;;;;;;7.30;99.90;;;;;;4910881;29;19922;-74
2022/11/23 02:39:47;;;;;;;;;;;7.20;99.90;;;;;;4879242;29;19975;-74
2022/11/23 02:42:12;;;;;;;;;;;7.20;99.90;;;;;;4911484;29;20371;-74
2022/11/23 02:44:38;;;;;;;;;;;7.20;99.90;;;;;;4895264;29;19926;-74
2022/11/23 02:47:04;;;;;;;;;;;7.20;99.90;;;;;;4895466;29;19951;-74
2022/11/23 02:49:29;;;;;;;;;;;7.20;99.90;;;;;;4895162;29;19965;-74
2022/11/23 02:51:55;;;;;;;;;;;7.20;99.90;;;;;;4879542;29;19966;-74
2022/11/23 02:54:21;;;;;;;;;;;7.10;99.90;;;;;;4895050;29;20018;-74
2022/11/23 02:56:46;;;;;;;;;;;7.10;99.90;;;;;;4895935;29;19927;-74
2022/11/23 02:59:12;;;;;;;;;;;7.10;99.90;;;;;;4876627;29;19930;-74
2022/11/23 03:01:39;;;;;;;;;;;7.10;99.90;;;;;;4896668;29;19925;-74
2022/11/23 03:04:05;;;;;;;;;;;7.10;99.90;;;;;;4893432;29;20022;-74
2022/11/23 03:06:30;;;;;;;;;;;7.10;99.90;;;;;;4908895;29;19919;-74
2022/11/23 03:08:56;;;;;;;;;;;7.00;99.90;;;;;;4913072;29;20359;-74
2022/11/23 03:11:22;;;;;;;;;;;7.00;99.90;;;;;;4900158;29;19923;-74
2022/11/23 03:13:47;;;;;;;;;;;7.00;99.90;;;;;;4895245;29;19919;-74
2022/11/23 03:16:13;;;;;;;;;;;7.00;99.90;;;;;;4909821;29;19974;-74
2022/11/23 03:18:40;;;;;;;;;;;7.00;99.90;;;;;;4894719;29;19973;-74
2022/11/23 03:21:07;;;;;;;;;;;7.00;99.90;;;;;;4910532;29;19923;-74
2022/11/23 03:23:33;;;;;;;;;;;7.00;99.90;;;;;;4909266;29;19926;-74
2022/11/23 03:25:59;;;;;;;;;;;7.00;99.90;;;;;;4887312;29;19927;-74
2022/11/23 03:28:25;;;;;;;;;;;7.00;99.90;;;;;;4898255;29;20459;-74
2022/11/23 03:30:50;;;;;;;;;;;7.00;99.90;;;;;;4895012;29;19934;-74
2022/11/23 03:33:16;;;;;;;;;;;7.00;99.90;;;;;;4910479;29;19926;-74
2022/11/23 03:35:42;;;;;;;;;;;7.00;99.90;;;;;;4894947;29;19919;-74
2022/11/23 03:38:08;;;;;;;;;;;6.90;99.90;;;;;;4878994;29;20399;-74
2022/11/23 03:40:33;;;;;;;;;;;7.00;99.90;;;;;;4894672;29;19922;-74
2022/11/23 03:42:59;;;;;;;;;;;7.00;99.90;;;;;;4879217;29;19922;-74
2022/11/23 03:45:24;;;;;;;;;;;7.00;99.90;;;;;;4894707;29;20248;-74
2022/11/23 03:47:50;;;;;;;;;;;7.00;99.90;;;;;;4910177;29;20494;-74
2022/11/23 03:50:16;;;;;;;;;;;6.90;99.90;;;;;;4894899;29;19923;-74
2022/11/23 03:52:41;;;;;;;;;;;6.90;99.90;;;;;;4898264;29;19926;-74
2022/11/23 03:55:07;;;;;;;;;;;6.80;99.90;;;;;;4898000;29;20144;-75
2022/11/23 03:57:32;;;;;;;;;;;6.70;99.90;;;;;;4895487;29;20014;-74
2022/11/23 03:59:58;;;;;;;;;;;6.70;99.90;;;;;;4894271;29;19922;-74
2022/11/23 04:02:24;;;;;;;;;;;6.60;99.90;;;;;;4882868;29;19989;-74
2022/11/23 04:04:49;;;;;;;;;;;6.60;99.90;;;;;;4888527;29;20438;-74
2022/11/23 04:07:15;;;;;;;;;;;6.60;99.90;;;;;;4914252;29;19919;-74
2022/11/23 04:09:41;;;;;;;;;;;6.60;99.90;;;;;;4882180;29;20465;-74
2022/11/23 04:12:08;;;;;;;;;;;6.60;99.90;;;;;;4893041;29;19923;-74
2022/11/23 04:14:33;;;;;;;;;;;6.60;99.90;;;;;;4913741;29;20002;-74
2022/11/23 04:17:00;;;;;;;;;;;6.60;99.90;;;;;;4913323;29;20038;-74
2022/11/23 04:19:26;;;;;;;;;;;6.70;99.90;;;;;;4897825;29;19937;-74
2022/11/23 04:21:52;;;;;;;;;;;6.70;99.90;;;;;;4897732;29;19919;-74
2022/11/23 04:24:17;;;;;;;;;;;6.80;99.90;;;;;;4900661;29;20331;-74
2022/11/23 04:26:43;;;;;;;;;;;6.90;99.90;;;;;;4896339;29;19925;-74
2022/11/23 04:29:08;;;;;;;;;;;6.90;99.90;;;;;;4896539;29;20395;-74
2022/11/23 04:31:34;;;;;;;;;;;7.00;99.90;;;;;;4904272;29;20046;-74
2022/11/23 04:34:00;;;;;;;;;;;7.00;99.90;;;;;;4913433;29;19919;-74
2022/11/23 04:36:26;;;;;;;;;;;7.00;99.90;;;;;;4897220;29;20014;-74
2022/11/23 04:38:52;;;;;;;;;;;7.00;99.90;;;;;;4882070;29;19927;-74
2022/11/23 04:41:17;;;;;;;;;;;6.90;99.90;;;;;;4896971;29;19923;-74
2022/11/23 04:43:43;;;;;;;;;;;6.90;99.90;;;;;;4881978;29;19966;-74
2022/11/23 04:46:10;;;;;;;;;;;6.90;99.90;;;;;;4912896;29;19922;-74
2022/11/23 04:48:36;;;;;;;;;;;6.80;99.90;;;;;;4913026;29;19919;-74
2022/11/23 04:51:01;;;;;;;;;;;6.70;99.90;;;;;;4896968;29;19942;-74
2022/11/23 04:53:27;;;;;;;;;;;6.70;99.90;;;;;;4897657;29;19922;-74
2022/11/23 04:55:52;;;;;;;;;;;6.70;99.90;;;;;;4912657;29;19982;-74
2022/11/23 04:58:18;;;;;;;;;;;6.70;99.90;;;;;;4881609;29;19923;-74
2022/11/23 05:00:44;;;;;;;;;;;6.70;99.90;;;;;;4896819;29;19975;-75
2022/11/23 05:03:09;;;;;;;;;;;6.60;99.90;;;;;;4900071;29;19978;-74
2022/11/23 05:05:38;;;;;;;;;;;6.60;99.90;;;;;;4881316;29;20052;-74
2022/11/23 05:08:05;;;;;;;;;;;6.60;99.90;;;;;;4905960;29;19925;-74
2022/11/23 05:10:30;;;;;;;;;;;6.60;99.90;;;;;;4896541;29;20002;-74
2022/11/23 05:12:56;;;;;;;;;;;6.60;99.90;;;;;;4912268;29;20431;-74
2022/11/23 05:15:21;;;;;;;;;;;6.60;99.90;;;;;;4896342;29;20374;-74
2022/11/23 05:17:47;;;;;;;;;;;6.60;99.90;;;;;;4896650;29;19993;-74
2022/11/23 05:20:13;;;;;;;;;;;6.60;99.90;;;;;;4918596;29;20148;-74
2022/11/23 05:22:38;;;;;;;;;;;6.50;99.90;;;;;;4898579;29;19929;-74
2022/11/23 05:25:04;;;;;;;;;;;6.50;99.90;;;;;;4908785;29;19926;-74
2022/11/23 05:27:30;;;;;;;;;;;6.50;99.90;;;;;;4874226;29;19975;-74
2022/11/23 05:29:55;;;;;;;;;;;6.50;99.90;;;;;;4901105;29;20368;-74
2022/11/23 05:32:21;;;;;;;;;;;6.50;99.90;;;;;;4902773;29;19945;-74
2022/11/23 05:34:47;;;;;;;;;;;6.50;99.90;;;;;;4912786;29;20311;-74
2022/11/23 05:37:12;;;;;;;;;;;6.50;99.90;;;;;;4896364;29;20394;-74
2022/11/23 05:39:38;;;;;;;;;;;6.60;99.90;;;;;;4899314;29;20230;-74
2022/11/23 05:42:04;;;;;;;;;;;6.60;99.90;;;;;;4917700;29;19919;-74
2022/11/23 05:44:29;;;;;;;;;;;6.60;99.90;;;;;;4896005;29;19930;-74
2022/11/23 05:46:55;;;;;;;;;;;6.70;99.90;;;;;;4896877;29;19946;-74
2022/11/23 05:49:20;;;;;;;;;;;6.70;99.90;;;;;;4889636;29;20407;-74
2022/11/23 05:51:46;;;;;;;;;;;6.70;99.90;;;;;;4896014;29;19919;-74
2022/11/23 05:54:12;;;;;;;;;;;6.70;99.90;;;;;;4880162;29;19918;-74
2022/11/23 05:56:37;;;;;;;;;;;6.70;99.90;;;;;;4875709;29;20468;-74
2022/11/23 05:59:04;;;;;;;;;;;6.70;99.90;;;;;;4876881;29;19930;-74
2022/11/23 06:01:30;;;;;;;;;;;6.70;99.90;;;;;;4894942;29;19923;-74
2022/11/23 06:03:56;;;;;;;;;;;6.70;99.90;;;;;;4895451;29;19919;-74
2022/11/23 06:06:22;;;;;;;;;;;6.70;99.90;;;;;;4895824;29;19923;-74
2022/11/23 06:08:47;;;;;;;;;;;6.70;99.90;;;;;;4894601;29;19919;-74
2022/11/23 06:11:13;;;;;;;;;;;6.70;99.90;;;;;;4892709;29;20022;-74
2022/11/23 06:13:38;;;;;;;;;;;6.70;99.90;;;;;;4893865;29;20602;-74
2022/11/23 06:16:04;;;;;;;;;;;6.80;99.90;;;;;;4892296;29;19926;-74
2022/11/23 06:18:30;;;;;;;;;;;6.70;99.90;;;;;;4894974;29;20021;-74
2022/11/23 06:20:58;;;;;;;;;;;6.70;99.90;;;;;;4879787;29;19924;-74
2022/11/23 06:23:24;;;;;;;;;;;6.80;99.90;;;;;;4913229;29;19974;-74
2022/11/23 06:25:49;;;;;;;;;;;6.80;99.90;;;;;;4908477;29;20010;-74
2022/11/23 06:28:15;;;;;;;;;;;6.80;99.90;;;;;;4879857;29;19923;-74
2022/11/23 06:30:41;;;;;;;;;;;6.80;99.90;;;;;;4880245;29;19970;-74
2022/11/23 06:33:07;;;;;;;;;;;6.80;99.90;;;;;;4879739;29;20089;-74
2022/11/23 06:35:32;;;;;;;;;;;6.80;99.90;;;;;;4908831;29;19950;-74
2022/11/23 06:37:58;;;;;;;;;;;6.80;99.90;;;;;;4892828;29;19930;-74
2022/11/23 06:40:23;;;;;;;;;;;6.80;99.90;;;;;;4877731;29;19923;-74
2022/11/23 06:42:49;;;;;;;;;;;6.80;99.90;;;;;;4878714;29;19946;-74
2022/11/23 06:45:15;;;;;;;;;;;6.80;99.90;;;;;;4895681;29;20125;-74
2022/11/23 06:47:40;;;;;;;;;;;6.80;99.90;;;;;;4911092;29;19927;-74
2022/11/23 06:50:06;;;;;;;;;;;6.80;99.90;;;;;;4895012;29;19930;-74
2022/11/23 06:52:32;;;;;;;;;;;6.80;99.90;;;;;;4894670;29;19930;-74
2022/11/23 06:54:57;;;;;;;;;;;6.80;99.90;;;;;;4894924;29;19930;-74
2022/11/23 06:57:23;;;;;;;;;;;6.80;99.90;;;;;;4895398;29;20216;-74
2022/11/23 06:59:49;;;;;;;;;;;6.80;99.90;;;;;;4894854;29;19927;-74
2022/11/23 07:02:14;;;;;;;;;;;6.80;99.90;;;;;;4895170;29;19930;-74
2022/11/23 07:04:40;;;;;;;;;;;6.80;99.90;;;;;;4879533;29;20026;-74
2022/11/23 07:07:08;;;;;;;;;;;6.80;99.90;;;;;;4895016;29;19919;-74
2022/11/23 07:09:34;;;;;;;;;;;6.80;99.90;;;;;;4910854;29;19923;-74
2022/11/23 07:12:00;;;;;;;;;;;6.80;99.90;;;;;;4878835;29;19926;-74
2022/11/23 07:14:26;;;;;;;;;;;6.90;99.90;;;;;;4879652;29;20006;-74
2022/11/23 07:16:51;;;;;;;;;;;6.80;99.90;;;;;;4891257;29;19927;-74
2022/11/23 07:19:17;;;;;;;;;;;6.90;99.90;;;;;;4894152;29;19934;-74
2022/11/23 07:21:43;;;;;;;;;;;6.90;99.90;;;;;;4908900;29;19931;-74
2022/11/23 07:24:09;;;;;;;;;;;6.90;99.90;;;;;;4894799;29;20026;-74
2022/11/23 07:26:35;;;;;;;;;;;6.90;99.90;;;;;;4895562;29;20002;-74
2022/11/23 07:29:00;;;;;;;;;;;6.90;99.90;;;;;;4897683;29;20386;-74
2022/11/23 07:31:26;;;;;;;;;;;6.90;99.90;;;;;;4898021;29;20006;-75
2022/11/23 07:33:52;;;;;;;;;;;6.90;99.90;;;;;;4882496;29;20215;-74
2022/11/23 07:36:18;;;;;;;;;;;7.00;99.90;;;;;;4882305;29;19929;-74
2022/11/23 07:38:43;;;;;;;;;;;7.00;99.90;;;;;;4912998;29;19922;-74
2022/11/23 07:41:09;;;;;;;;;;;7.00;99.90;;;;;;4897159;29;20402;-74
2022/11/23 07:43:34;;;;;;;;;;;7.00;99.90;;;;;;4898735;29;20002;-74
2022/11/23 07:46:00;;;;;;;;;;;7.00;99.90;;;;;;4898070;29;19919;-74
2022/11/23 07:48:26;;;;;;;;;;;7.00;99.90;;;;;;4898122;29;19923;-74
2022/11/23 07:50:52;;;;;;;;;;;7.00;99.90;;;;;;4898511;29;20337;-74
2022/11/23 07:53:18;;;;;;;;;;;7.00;99.90;;;;;;4914466;29;20423;-75
2022/11/23 07:55:44;;;;;;;;;;;7.00;99.90;;;;;;4913911;29;19930;-74
2022/11/23 07:58:09;;;;;;;;;;;7.00;99.90;;;;;;4913423;29;19990;-74
2022/11/23 08:00:35;;;;;;;;;;;7.00;99.90;;;;;;4898365;29;20045;-74
2022/11/23 08:03:01;;;;;;;;;;;7.00;99.90;;;;;;4913918;29;19974;-74
2022/11/23 08:05:27;;;;;;;;;;;7.00;99.90;;;;;;4913345;29;20017;-74
2022/11/23 08:07:57;;;;;;;;;;;7.00;99.90;;;;;;4913418;29;20154;-74
2022/11/23 08:10:23;;;;;;;;;;;7.00;99.90;;;;;;4899671;29;19918;-74
2022/11/23 08:12:49;;;;;;;;;;;7.00;99.90;;;;;;4920153;29;20124;-74
2022/11/23 08:15:15;;;;;;;;;;;7.00;99.90;;;;;;4913607;29;20022;-74
2022/11/23 08:17:41;;;;;;;;;;;7.10;99.90;;;;;;4897687;29;20018;-74
2022/11/23 08:20:09;;;;;;;;;;;7.10;99.90;;;;;;4913103;29;19931;-74
2022/11/23 08:22:34;;;;;;;;;;;7.10;99.90;;;;;;4900475;29;20375;-74
2022/11/23 08:25:00;;;;;;;;;;;7.20;99.90;;;;;;4892618;29;19930;-74
2022/11/23 08:27:26;;;;;;;;;;;7.20;99.90;;;;;;4891164;29;19942;-74
2022/11/23 08:29:51;;;;;;;;;;;7.30;99.90;;;;;;4897243;29;19949;-74
2022/11/23 08:32:17;;;;;;;;;;;7.40;99.90;;;;;;4882221;29;19926;-74
2022/11/23 08:34:43;;;;;;;;;;;7.40;99.90;;;;;;4897338;29;19925;-74
2022/11/23 08:37:09;;;;;;;;;;;7.50;99.90;;;;;;4897486;29;19934;-74
2022/11/23 08:39:34;;;;;;;;;;;7.50;99.90;;;;;;4912295;29;19931;-74
2022/11/23 08:42:00;;;;;;;;;;;7.60;99.90;;;;;;4897466;29;20338;-74
2022/11/23 08:44:26;;;;;;;;;;;7.60;99.90;;;;;;4881581;29;20262;-74
2022/11/23 08:46:51;;;;;;;;;;;7.70;99.90;;;;;;4897652;29;20006;-74
2022/11/23 08:49:17;;;;;;;;;;;7.70;99.90;;;;;;4896986;29;20367;-74
2022/11/23 08:51:43;;;;;;;;;;;7.70;99.90;;;;;;4881805;29;20039;-74
2022/11/23 08:54:08;;;;;;;;;;;7.70;99.90;;;;;;4897133;29;20395;-74
2022/11/23 08:56:34;;;;;;;;;;;7.70;99.90;;;;;;4913132;29;19934;-74
2022/11/23 08:58:59;;;;;;;;;;;7.80;99.90;;;;;;4912343;29;19973;-74
2022/11/23 09:01:25;;;;;;;;;;;7.80;99.90;;;;;;4897152;29;19962;-74
2022/11/23 09:03:51;;;;;;;;;;;7.80;99.90;;;;;;4896087;29;19934;-74
2022/11/23 09:06:16;;;;;;;;;;;7.80;99.90;;;;;;4881957;29;19919;-75
2022/11/23 09:08:42;;;;;;;;;;;7.80;99.90;;;;;;4873086;29;20013;-75
2022/11/23 09:11:10;;;;;;;;;;;7.80;99.90;;;;;;4881142;29;19950;-74
2022/11/23 09:13:36;;;;;;;;;;;7.90;99.90;;;;;;4896531;29;19938;-74
2022/11/23 09:16:02;;;;;;;;;;;7.90;99.90;;;;;;4897575;29;19923;-74
2022/11/23 09:18:32;;;;;;;;;;;7.90;99.90;;;;;;4897525;29;19923;-75
2022/11/23 09:20:57;;;;;;;;;;;7.90;99.90;;;;;;4910880;29;19926;-75
2022/11/23 09:23:25;;;;;;;;;;;7.90;99.90;;;;;;4914843;29;19931;-74
2022/11/23 09:25:51;;;;;;;;;;;7.90;99.90;;;;;;4877359;29;19923;-74
2022/11/23 09:28:18;;;;;;;;;;;7.90;99.90;;;;;;4896677;29;20057;-75
2022/11/23 09:30:45;;;;;;;;;;;8.00;99.90;;;;;;4896099;29;19926;-74
2022/11/23 09:33:10;;;;;;;;;;;8.00;99.90;;;;;;4896602;29;19962;-75
2022/11/23 09:35:36;;;;;;;;;;;8.00;99.90;;;;;;4881128;29;19969;-75
2022/11/23 09:38:01;;;;;;;;;;;8.00;99.90;;;;;;4896627;29;19927;-74
2022/11/23 09:40:29;;;;;;;;;;;8.10;99.90;;;;;;4896166;29;20003;-74
2022/11/23 09:43:01;;;;;;;;;;;8.10;99.90;;;;;;4896422;29;20339;-74
2022/11/23 09:45:38;;;;;;;;;;;8.10;99.90;;;;;;4896255;29;19919;-74
2022/11/23 09:48:22;;;;;;;;;;;8.10;99.90;;;;;;4911527;29;19919;-74
2022/11/23 09:50:51;;;;;;;;;;;8.10;99.90;;;;;;4911818;29;20279;-74
2022/11/23 09:53:20;;;;;;;;;;;8.10;99.90;;;;;;4896373;29;19926;-74
2022/11/23 09:55:47;;;;;;;;;;;8.00;99.90;;;;;;4912225;29;19923;-74
2022/11/23 09:58:18;;;;;;;;;;;8.00;99.90;;;;;;4896105;29;19939;-74
2022/11/23 10:00:52;;;;;;;;;;;8.10;99.90;;;;;;4896003;29;19923;-74
2022/11/23 10:03:18;;;;;;;;;;;8.20;99.90;;;;;;4911743;29;19923;-74
2022/11/23 10:05:47;;;;;;;;;;;8.20;99.90;;;;;;4895787;29;20261;-74
2022/11/23 10:08:26;;;;;;;;;;;8.20;99.90;;;;;;4912031;29;19942;-74
2022/11/23 10:11:01;;;;;;;;;;;8.20;99.90;;;;;;4895768;29;19923;-74
2022/11/23 10:13:33;;;;;;;;;;;8.20;99.90;;;;;;4896028;29;19954;-74
2022/11/23 10:16:17;;;;;;;;;;;8.20;99.90;;;;;;4896723;29;19925;-73
2022/11/23 10:18:48;;;;;;;;;;;8.20;99.90;;;;;;4910944;29;19923;-74
2022/11/23 10:21:28;;;;;;;;;;;8.20;99.90;;;;;;4896299;29;19945;-74
2022/11/23 10:23:55;;;;;;;;;;;8.20;99.90;;;;;;4897824;29;19926;-74
2022/11/23 10:26:29;;;;;;;;;;;8.30;99.90;;;;;;4895451;29;19919;-74
2022/11/23 10:28:56;;;;;;;;;;;8.30;99.90;;;;;;4898099;29;19923;-74
2022/11/23 10:31:22;;;;;;;;;;;8.40;99.90;;;;;;4911493;29;19959;-74
2022/11/23 10:33:51;;;;;;;;;;;8.40;99.90;;;;;;4895393;29;19919;-74
2022/11/23 10:36:16;;;;;;;;;;;8.40;99.90;;;;;;4911138;29;19930;-74
2022/11/23 10:38:42;;;;;;;;;;;8.50;99.90;;;;;;4895094;29;19927;-74
2022/11/23 10:41:09;;;;;;;;;;;8.60;99.90;;;;;;4879799;29;20379;-74
2022/11/23 10:43:44;;;;;;;;;;;8.80;99.90;;;;;;4911009;29;19922;-74
2022/11/23 10:46:23;;;;;;;;;;;8.90;99.90;;;;;;4908356;29;19923;-74
2022/11/23 10:48:50;;;;;;;;;;;8.90;99.90;;;;;;4895085;29;19983;-74
2022/11/23 10:51:16;;;;;;;;;;;8.80;99.90;;;;;;4895247;29;19919;-74
2022/11/23 10:53:41;;;;;;;;;;;8.80;99.90;;;;;;4895441;29;19966;-74
2022/11/23 10:56:11;;;;;;;;;;;8.70;99.90;;;;;;4894699;29;19923;-74
2022/11/23 10:58:44;;;;;;;;;;;8.70;99.90;;;;;;4896975;29;19935;-74
2022/11/23 11:01:18;;;;;;;;;;;8.70;99.90;;;;;;4894726;29;19962;-74
2022/11/23 11:03:44;;;;;;;;;;;8.70;99.90;;;;;;4895261;29;20390;-74
2022/11/23 11:06:10;;;;;;;;;;;8.70;99.90;;;;;;4894790;29;19927;-74
2022/11/23 11:08:47;;;;;;;;;;;8.70;99.90;;;;;;4910244;29;20002;-74
2022/11/23 11:11:26;;;;;;;;;;;8.80;99.90;;;;;;4910666;29;19919;-74
2022/11/23 11:14:05;;;;;;;;;;;8.80;99.90;;;;;;4908199;29;19998;-74
2022/11/23 11:16:36;;;;;;;;;;;8.80;99.90;;;;;;4892629;29;20379;-74
2022/11/23 11:19:20;;;;;;;;;;;8.80;99.90;;;;;;4906629;29;20096;-74
2022/11/23 11:21:46;;;;;;;;;;;8.80;99.90;;;;;;4910299;29;19923;-74
2022/11/23 11:24:17;;;;;;;;;;;8.80;99.90;;;;;;4897589;29;19919;-74
2022/11/23 11:26:56;;;;;;;;;;;8.90;99.90;;;;;;4894651;29;19919;-74
2022/11/23 11:29:42;;;;;;;;;;;8.80;99.90;;;;;;4910487;29;19927;-74
2022/11/23 11:32:22;;;;;;;;;;;8.70;99.90;;;;;;4885214;29;19919;-74
2022/11/23 11:34:51;;;;;;;;;;;8.70;99.90;;;;;;4908262;29;20287;-74
2022/11/23 11:37:35;;;;;;;;;;;8.80;99.90;;;;;;4894739;29;19923;-74
2022/11/23 11:40:21;;;;;;;;;;;8.90;99.90;;;;;;4909867;29;20335;-74
2022/11/23 11:42:47;;;;;;;;;;;9.10;99.90;;;;;;4909853;29;19923;-74
2022/11/23 11:45:24;;;;;;;;;;;9.20;99.90;;;;;;4894866;29;19919;-74
2022/11/23 11:48:12;;;;;;;;;;;9.20;99.90;;;;;;4895176;29;19973;-74
2022/11/23 11:50:59;;;;;;;;;;;9.20;99.90;;;;;;4909916;29;20470;-74
2022/11/23 11:53:48;;;;;;;;;;;9.20;99.90;;;;;;4895194;29;19941;-74
2022/11/23 11:56:19;;;;;;;;;;;9.20;99.90;;;;;;4887322;29;20375;-74
2022/11/23 11:58:53;;;;;;;;;;;9.20;99.90;;;;;;4910219;29;19970;-73
2022/11/23 12:01:19;;;;;;;;;;;9.20;99.90;;;;;;4893755;29;19919;-74
2022/11/23 12:03:56;;;;;;;;;;;9.20;99.90;;;;;;4893427;29;20512;-73
2022/11/23 12:06:32;;;;;;;;;;;9.20;99.90;;;;;;4910425;29;19926;-73
2022/11/23 12:09:03;;;;;;;;;;;9.20;99.90;;;;;;4909172;29;19987;-73
2022/11/23 12:11:29;;;;;;;;;;;9.20;99.90;;;;;;4894445;29;19938;-73
2022/11/23 12:13:59;;;;;;;;;;;9.30;99.90;;;;;;4898379;29;19923;-73
2022/11/23 12:16:33;;;;;;;;;;;9.30;99.90;;;;;;4913229;29;19926;-74
2022/11/23 12:18:58;;;;;;;;;;;9.30;99.90;;;;;;4897556;29;19923;-74
2022/11/23 12:21:41;;;;;;;;;;;9.30;99.90;;;;;;4897595;29;19923;-74
2022/11/23 12:24:16;;;;;;;;;;;9.30;99.90;;;;;;4916400;29;20049;-74
2022/11/23 12:27:01;;;;;;;;;;;9.20;99.90;;;;;;4906060;29;19919;-74
2022/11/23 12:29:32;;;;;;;;;;;9.20;99.90;;;;;;4897975;29;19951;-74
2022/11/23 12:32:10;;;;;;;;;;;9.20;99.90;;;;;;4913320;29;19983;-74
2022/11/23 12:34:42;;;;;;;;;;;9.20;99.90;;;;;;4912969;29;19942;-74
2022/11/23 12:37:07;;;;;;;;;;;9.10;99.90;;;;;;4896364;29;19990;-74
2022/11/23 12:39:58;;;;;;;;;;;9.10;99.90;;;;;;4912827;29;19970;-75
2022/11/23 12:42:30;;;;;;;;;;;9.20;99.90;;;;;;4897909;29;20291;-75
2022/11/23 12:45:35;;;;;;;;;;;9.20;99.90;;;;;;4897738;29;20522;-75
2022/11/23 12:48:00;;;;;;;;;;;9.10;99.90;;;;;;4858489;29;19931;-75
2022/11/23 12:50:26;;;;;;;;;;;9.20;99.90;;;;;;4843483;29;19920;-75
2022/11/23 12:52:58;;;;;;;;;;;9.20;99.90;;;;;;4866326;29;20002;-74
2022/11/23 12:55:34;;;;;;;;;;;9.20;99.90;;;;;;4897271;29;20347;-74
2022/11/23 12:58:03;;;;;;;;;;;9.10;99.90;;;;;;4897224;29;20276;-74
2022/11/23 13:00:32;;;;;;;;;;;9.10;99.90;;;;;;4896662;29;20390;-74
2022/11/23 13:02:58;;;;;;;;;;;9.10;99.90;;;;;;4897921;29;19923;-74
2022/11/23 13:05:24;;;;;;;;;;;9.00;99.90;;;;;;4916605;29;19970;-74
2022/11/23 13:08:08;;;;;;;;;;;9.00;99.90;;;;;;4900290;29;19927;-75
2022/11/23 13:10:51;;;;;;;;;;;8.90;99.90;;;;;;4915988;29;19923;-74
2022/11/23 13:13:26;;;;;;;;;;;8.90;99.90;;;;;;4900673;29;19974;-75
2022/11/23 13:15:55;;;;;;;;;;;8.80;99.90;;;;;;4908135;29;20030;-74
2022/11/23 13:18:27;;;;;;;;;;;8.70;99.90;;;;;;4915915;29;20372;-74
2022/11/23 13:20:52;;;;;;;;;;;8.80;99.90;;;;;;4900483;29;19918;-75
2022/11/23 13:23:20;;;;;;;;;;;8.80;99.90;;;;;;4900221;29;20379;-74
2022/11/23 13:26:09;;;;;;;;;;;8.80;99.90;;;;;;4896922;29;19923;-74
2022/11/23 13:28:34;;;;;;;;;;;8.80;99.90;;;;;;4899062;29;19919;-74
2022/11/23 13:31:15;;;;;;;;;;;8.70;99.90;;;;;;4900093;29;19978;-74
2022/11/23 13:33:45;;;;;;;;;;;8.60;99.90;;;;;;4892607;29;20033;-74
2022/11/23 13:36:12;;;;;;;;;;;8.50;99.90;;;;;;4915710;29;19923;-74
2022/11/23 13:38:39;;;;;;;;;;;8.50;99.90;;;;;;4915653;29;19934;-74
2022/11/23 13:41:23;;;;;;;;;;;8.50;99.90;;;;;;4899543;29;19922;-74
2022/11/23 13:43:50;;;;;;;;;;;8.40;99.90;;;;;;4911004;29;19945;-74
2022/11/23 13:46:23;;;;;;;;;;;8.40;99.90;;;;;;4899715;29;20371;-74
2022/11/23 13:48:50;;;;;;;;;;;8.30;99.90;;;;;;4914859;29;19963;-74
2022/11/23 13:51:23;;;;;;;;;;;8.30;99.90;;;;;;4899488;29;20013;-74
2022/11/23 13:54:01;;;;;;;;;;;8.20;99.90;;;;;;4899176;29;19919;-74
2022/11/23 13:56:38;;;;;;;;;;;8.20;99.90;;;;;;4899292;29;19923;-74
2022/11/23 13:59:22;;;;;;;;;;;8.20;99.90;;;;;;4908947;29;19923;-75
2022/11/23 14:02:06;;;;;;;;;;;8.10;99.90;;;;;;4910825;29;20287;-74
2022/11/23 14:04:33;;;;;;;;;;;8.10;99.90;;;;;;4903875;29;20339;-74
2022/11/23 14:07:05;;;;;;;;;;;8.00;99.90;;;;;;4895410;29;20001;-74
2022/11/23 14:09:53;;;;;;;;;;;8.00;99.90;;;;;;4911463;29;20260;-74
2022/11/23 14:12:21;;;;;;;;;;;7.90;99.90;;;;;;4919376;29;19958;-74
2022/11/23 14:14:50;;;;;;;;;;;7.90;99.90;;;;;;4897053;29;20014;-74
2022/11/23 14:17:22;;;;;;;;;;;7.80;99.90;;;;;;4895157;29;19927;-74
2022/11/23 14:20:07;;;;;;;;;;;7.80;99.90;;;;;;4910856;29;20388;-73
2022/11/23 14:22:38;;;;;;;;;;;7.70;99.90;;;;;;4910162;29;20272;-74
2022/11/23 14:25:27;;;;;;;;;;;7.70;99.90;;;;;;4907411;29;19923;-73
2022/11/23 14:28:01;;;;;;;;;;;7.70;99.90;;;;;;4908712;29;20445;-73
2022/11/23 14:30:47;;;;;;;;;;;7.70;99.90;;;;;;4888077;29;19919;-73
2022/11/23 14:33:35;;;;;;;;;;;7.60;99.90;;;;;;4911003;29;20478;-74
2022/11/23 14:36:16;;;;;;;;;;;7.60;99.90;;;;;;4895532;29;20406;-74
2022/11/23 14:39:01;;;;;;;;;;;7.60;99.90;;;;;;4890790;29;20352;-74